createdAt,value
2023-05-16T00:00:31.480Z,380.00
2023-05-16T00:01:31.509Z,380.00
2023-05-16T00:02:31.592Z,380.00
2023-05-16T00:03:31.585Z,381.00
2023-05-16T00:04:31.538Z,382.00
2023-05-16T00:05:31.521Z,381.00
2023-05-16T00:06:31.504Z,380.00
2023-05-16T00:07:31.520Z,379.00
2023-05-16T00:08:31.519Z,379.00
2023-05-16T00:09:31.517Z,379.00
2023-05-16T00:10:31.527Z,381.00
2023-05-16T00:11:31.573Z,382.00
2023-05-16T00:12:31.589Z,384.00
2023-05-16T00:13:31.580Z,382.00
2023-05-16T00:14:31.597Z,383.00
2023-05-16T00:15:31.613Z,381.00
2023-05-16T00:16:31.635Z,380.00
2023-05-16T00:17:31.639Z,381.00
2023-05-16T00:18:31.669Z,380.00
2023-05-16T00:19:31.626Z,381.00
2023-05-16T00:20:31.633Z,380.00
2023-05-16T00:21:31.644Z,379.00
2023-05-16T00:22:31.630Z,380.00
2023-05-16T00:23:31.641Z,381.00
2023-05-16T00:24:31.639Z,378.00
2023-05-16T00:25:31.671Z,378.00
2023-05-16T00:26:31.654Z,380.00
2023-05-16T00:27:31.664Z,380.00
2023-05-16T00:28:31.685Z,382.00
2023-05-16T00:29:31.682Z,381.00
2023-05-16T00:30:31.688Z,381.00
2023-05-16T00:31:31.735Z,382.00
2023-05-16T00:32:31.714Z,380.00
2023-05-16T00:33:31.730Z,380.00
2023-05-16T00:34:31.810Z,379.00
2023-05-16T00:35:31.744Z,380.00
2023-05-16T00:36:31.757Z,379.00
2023-05-16T00:37:31.748Z,379.00
2023-05-16T00:38:31.764Z,378.00
2023-05-16T00:39:31.796Z,380.00
2023-05-16T00:40:31.814Z,380.00
2023-05-16T00:41:31.802Z,382.00
2023-05-16T00:42:31.790Z,380.00
2023-05-16T00:43:31.808Z,380.00
2023-05-16T00:44:31.828Z,384.00
2023-05-16T00:45:31.845Z,383.00
2023-05-16T00:46:31.925Z,382.00
2023-05-16T00:47:31.895Z,383.00
2023-05-16T00:48:31.867Z,385.00
2023-05-16T00:49:31.880Z,386.00
2023-05-16T00:50:31.891Z,388.00
2023-05-16T00:51:31.925Z,388.00
2023-05-16T00:52:31.905Z,387.00
2023-05-16T00:53:31.933Z,386.00
2023-05-16T00:54:31.941Z,387.00
2023-05-16T00:55:31.942Z,388.00
2023-05-16T00:56:31.975Z,385.00
2023-05-16T00:57:31.976Z,384.00
2023-05-16T00:58:31.975Z,384.00
2023-05-16T00:59:31.984Z,384.00
2023-05-16T01:00:31.999Z,384.00
2023-05-16T01:01:32.000Z,384.00
2023-05-16T01:02:32.116Z,385.00
2023-05-16T01:03:32.178Z,387.00
2023-05-16T01:04:31.999Z,390.00
2023-05-16T01:05:32.027Z,388.00
2023-05-16T01:06:32.010Z,386.00
2023-05-16T01:07:32.023Z,386.00
2023-05-16T01:08:32.044Z,384.00
2023-05-16T01:09:32.068Z,387.00
2023-05-16T01:10:32.074Z,386.00
2023-05-16T01:11:32.068Z,387.00
2023-05-16T01:12:32.073Z,389.00
2023-05-16T01:13:32.076Z,388.00
2023-05-16T01:14:32.102Z,388.00
2023-05-16T01:15:32.133Z,388.00
2023-05-16T01:16:32.221Z,389.00
2023-05-16T01:17:32.144Z,389.00
2023-05-16T01:18:32.162Z,389.00
2023-05-16T01:19:32.194Z,387.00
2023-05-16T01:20:32.167Z,386.00
2023-05-16T01:21:32.174Z,387.00
2023-05-16T01:22:32.195Z,386.00
2023-05-16T01:23:32.206Z,386.00
2023-05-16T01:24:32.201Z,384.00
2023-05-16T01:25:32.204Z,383.00
2023-05-16T01:26:32.232Z,385.00
2023-05-16T01:27:32.237Z,383.00
2023-05-16T01:28:32.253Z,383.00
2023-05-16T01:29:32.243Z,386.00
2023-05-16T01:30:32.259Z,385.00
2023-05-16T01:31:32.365Z,385.00
2023-05-16T01:32:32.326Z,387.00
2023-05-16T01:33:32.317Z,388.00
2023-05-16T01:34:32.325Z,388.00
2023-05-16T01:35:32.315Z,389.00
2023-05-16T01:36:32.340Z,388.00
2023-05-16T01:37:32.345Z,388.00
2023-05-16T01:38:32.360Z,390.00
2023-05-16T01:39:32.357Z,391.00
2023-05-16T01:40:32.409Z,392.00
2023-05-16T01:41:32.392Z,393.00
2023-05-16T01:42:32.404Z,391.00
2023-05-16T01:43:32.426Z,391.00
2023-05-16T01:44:32.436Z,391.00
2023-05-16T01:45:32.475Z,391.00
2023-05-16T01:46:32.521Z,393.00
2023-05-16T01:47:32.508Z,392.00
2023-05-16T01:48:32.487Z,391.00
2023-05-16T01:49:32.512Z,391.00
2023-05-16T01:50:32.521Z,391.00
2023-05-16T01:51:32.521Z,390.00
2023-05-16T01:52:32.552Z,388.00
2023-05-16T01:53:32.538Z,389.00
2023-05-16T01:54:32.547Z,390.00
2023-05-16T01:55:32.575Z,388.00
2023-05-16T01:56:32.579Z,388.00
2023-05-16T01:57:32.597Z,388.00
2023-05-16T01:58:32.610Z,389.00
2023-05-16T01:59:32.610Z,389.00
2023-05-16T02:00:32.618Z,389.00
2023-05-16T02:01:32.763Z,389.00
2023-05-16T02:02:32.712Z,387.00
2023-05-16T02:03:32.716Z,388.00
2023-05-16T02:04:33.224Z,387.00
2023-05-16T02:05:32.714Z,388.00
2023-05-16T02:06:32.723Z,389.00
2023-05-16T02:07:32.732Z,389.00
2023-05-16T02:08:32.742Z,386.00
2023-05-16T02:09:32.766Z,386.00
2023-05-16T02:10:32.800Z,386.00
2023-05-16T02:11:32.812Z,387.00
2023-05-16T02:12:32.819Z,386.00
2023-05-16T02:13:32.828Z,386.00
2023-05-16T02:14:32.844Z,386.00
2023-05-16T02:15:32.857Z,387.00
2023-05-16T02:16:32.945Z,388.00
2023-05-16T02:17:32.940Z,386.00
2023-05-16T02:18:32.912Z,384.00
2023-05-16T02:19:32.925Z,385.00
2023-05-16T02:20:32.966Z,385.00
2023-05-16T02:21:32.980Z,386.00
2023-05-16T02:22:32.968Z,388.00
2023-05-16T02:23:33.037Z,390.00
2023-05-16T02:24:33.026Z,390.00
2023-05-16T02:25:33.024Z,390.00
2023-05-16T02:26:33.081Z,388.00
2023-05-16T02:27:33.078Z,388.00
2023-05-16T02:28:33.095Z,389.00
2023-05-16T02:29:33.097Z,390.00
2023-05-16T02:30:33.136Z,394.00
2023-05-16T02:31:33.160Z,392.00
2023-05-16T02:32:33.260Z,391.00
2023-05-16T02:33:33.187Z,390.00
2023-05-16T02:34:33.186Z,391.00
2023-05-16T02:35:33.229Z,392.00
2023-05-16T02:36:33.237Z,393.00
2023-05-16T02:37:33.241Z,391.00
2023-05-16T02:38:33.253Z,391.00
2023-05-16T02:39:33.290Z,391.00
2023-05-16T02:40:33.286Z,392.00
2023-05-16T02:41:33.303Z,393.00
2023-05-16T02:42:33.324Z,394.00
2023-05-16T02:43:33.352Z,395.00
2023-05-16T02:44:33.392Z,395.00
2023-05-16T02:45:33.369Z,395.00
2023-05-16T02:46:33.499Z,394.00
2023-05-16T02:47:33.427Z,393.00
2023-05-16T02:48:33.431Z,394.00
2023-05-16T02:49:33.442Z,392.00
2023-05-16T02:50:33.460Z,392.00
2023-05-16T02:51:33.474Z,391.00
2023-05-16T02:52:33.486Z,392.00
2023-05-16T02:53:33.516Z,394.00
2023-05-16T02:54:33.552Z,393.00
2023-05-16T02:55:33.527Z,393.00
2023-05-16T02:56:33.559Z,394.00
2023-05-16T02:57:33.587Z,393.00
2023-05-16T02:58:33.579Z,392.00
2023-05-16T02:59:33.602Z,391.00
2023-05-16T03:00:33.610Z,390.00
2023-05-16T03:01:33.678Z,388.00
2023-05-16T03:02:33.772Z,389.00
2023-05-16T03:03:33.801Z,390.00
2023-05-16T03:04:33.661Z,389.00
2023-05-16T03:05:33.683Z,388.00
2023-05-16T03:06:33.714Z,387.00
2023-05-16T03:07:33.711Z,387.00
2023-05-16T03:08:33.747Z,385.00
2023-05-16T03:09:33.751Z,386.00
2023-05-16T03:10:33.795Z,386.00
2023-05-16T03:11:34.223Z,386.00
2023-05-16T03:12:33.808Z,386.00
2023-05-16T03:13:33.830Z,390.00
2023-05-16T03:14:33.821Z,390.00
2023-05-16T03:15:33.866Z,393.00
2023-05-16T03:16:33.956Z,395.00
2023-05-16T03:17:33.928Z,397.00
2023-05-16T03:18:33.929Z,397.00
2023-05-16T03:19:33.899Z,396.00
2023-05-16T03:20:33.917Z,396.00
2023-05-16T03:21:33.933Z,397.00
2023-05-16T03:22:33.965Z,397.00
2023-05-16T03:23:34.003Z,393.00
2023-05-16T03:24:34.771Z,392.00
2023-05-16T03:25:34.036Z,389.00
2023-05-16T03:26:34.106Z,389.00
2023-05-16T03:27:34.141Z,392.00
2023-05-16T03:28:34.215Z,396.00
2023-05-16T03:29:34.276Z,397.00
2023-05-16T03:30:34.369Z,395.00
2023-05-16T03:31:34.446Z,396.00
2023-05-16T03:32:34.425Z,396.00
2023-05-16T03:33:34.463Z,394.00
2023-05-16T03:34:34.468Z,394.00
2023-05-16T03:35:34.486Z,394.00
2023-05-16T03:36:34.511Z,394.00
2023-05-16T03:37:34.521Z,394.00
2023-05-16T03:38:34.532Z,394.00
2023-05-16T03:39:34.535Z,396.00
2023-05-16T03:40:34.560Z,397.00
2023-05-16T03:41:34.591Z,396.00
2023-05-16T03:42:34.606Z,396.00
2023-05-16T03:43:34.615Z,397.00
2023-05-16T03:44:34.620Z,396.00
2023-05-16T03:45:34.668Z,396.00
2023-05-16T03:46:34.714Z,396.00
2023-05-16T03:47:34.735Z,400.00
2023-05-16T03:48:34.733Z,400.00
2023-05-16T03:49:34.714Z,400.00
2023-05-16T03:50:34.761Z,399.00
2023-05-16T03:51:34.752Z,401.00
2023-05-16T03:52:34.779Z,402.00
2023-05-16T03:53:34.781Z,403.00
2023-05-16T03:54:34.823Z,403.00
2023-05-16T03:55:34.824Z,404.00
2023-05-16T03:56:34.850Z,406.00
2023-05-16T03:57:34.875Z,408.00
2023-05-16T03:58:34.900Z,407.00
2023-05-16T03:59:34.926Z,405.00
2023-05-16T04:00:34.936Z,405.00
2023-05-16T04:01:35.015Z,405.00
2023-05-16T04:02:35.056Z,406.00
2023-05-16T04:03:35.048Z,406.00
2023-05-16T04:04:35.017Z,404.00
2023-05-16T04:05:35.069Z,401.00
2023-05-16T04:06:35.074Z,401.00
2023-05-16T04:07:35.118Z,404.00
2023-05-16T04:08:35.112Z,402.00
2023-05-16T04:09:35.117Z,400.00
2023-05-16T04:10:35.153Z,402.00
2023-05-16T04:11:35.142Z,400.00
2023-05-16T04:12:35.173Z,399.00
2023-05-16T04:13:35.235Z,399.00
2023-05-16T04:14:35.247Z,399.00
2023-05-16T04:15:35.303Z,398.00
2023-05-16T04:16:35.330Z,400.00
2023-05-16T04:17:35.469Z,396.00
2023-05-16T04:18:35.485Z,395.00
2023-05-16T04:19:35.471Z,398.00
2023-05-16T04:20:35.529Z,401.00
2023-05-16T04:21:35.579Z,403.00
2023-05-16T04:22:35.663Z,403.00
2023-05-16T04:23:35.695Z,404.00
2023-05-16T04:24:35.752Z,404.00
2023-05-16T04:25:35.829Z,403.00
2023-05-16T04:26:35.823Z,403.00
2023-05-16T04:27:35.831Z,404.00
2023-05-16T04:28:35.858Z,403.00
2023-05-16T04:29:35.884Z,401.00
2023-05-16T04:30:35.912Z,402.00
2023-05-16T04:31:35.969Z,399.00
2023-05-16T04:32:35.979Z,401.00
2023-05-16T04:33:35.962Z,403.00
2023-05-16T04:34:37.969Z,404.00
2023-05-16T04:35:35.983Z,403.00
2023-05-16T04:36:35.978Z,401.00
2023-05-16T04:37:35.983Z,402.00
2023-05-16T04:38:35.983Z,401.00
2023-05-16T04:39:35.973Z,399.00
2023-05-16T04:40:35.991Z,399.00
2023-05-16T04:41:35.944Z,399.00
2023-05-16T04:42:35.936Z,402.00
2023-05-16T04:43:35.950Z,402.00
2023-05-16T04:44:35.939Z,401.00
2023-05-16T04:45:37.587Z,402.00
2023-05-16T04:46:35.973Z,402.00
2023-05-16T04:47:35.924Z,402.00
2023-05-16T04:48:35.927Z,402.00
2023-05-16T04:49:35.904Z,403.00
2023-05-16T04:50:35.942Z,405.00
2023-05-16T04:51:35.883Z,404.00
2023-05-16T04:52:35.879Z,404.00
2023-05-16T04:53:35.866Z,402.00
2023-05-16T04:54:35.881Z,399.00
2023-05-16T04:55:35.861Z,398.00
2023-05-16T04:56:35.851Z,398.00
2023-05-16T04:57:35.860Z,397.00
2023-05-16T04:58:35.839Z,397.00
2023-05-16T04:59:35.822Z,398.00
2023-05-16T05:00:35.817Z,397.00
2023-05-16T05:01:35.880Z,399.00
2023-05-16T05:02:35.886Z,399.00
2023-05-16T05:03:35.876Z,399.00
2023-05-16T05:04:35.980Z,400.00
2023-05-16T05:05:35.975Z,399.00
2023-05-16T05:06:35.949Z,401.00
2023-05-16T05:07:35.977Z,401.00
2023-05-16T05:08:35.986Z,401.00
2023-05-16T05:09:35.994Z,403.00
2023-05-16T05:10:36.043Z,404.00
2023-05-16T05:11:36.036Z,405.00
2023-05-16T05:12:36.088Z,403.00
2023-05-16T05:13:36.093Z,403.00
2023-05-16T05:14:36.125Z,404.00
2023-05-16T05:15:36.134Z,399.00
2023-05-16T05:16:36.168Z,395.00
2023-05-16T05:17:36.255Z,393.00
2023-05-16T05:18:36.264Z,394.00
2023-05-16T05:19:36.237Z,392.00
2023-05-16T05:20:36.218Z,394.00
2023-05-16T05:21:36.278Z,395.00
2023-05-16T05:22:36.314Z,396.00
2023-05-16T05:23:36.356Z,395.00
2023-05-16T05:24:36.427Z,394.00
2023-05-16T05:25:37.829Z,393.00
2023-05-16T05:26:36.450Z,392.00
2023-05-16T05:27:36.507Z,393.00
2023-05-16T05:28:36.546Z,391.00
2023-05-16T05:29:36.621Z,396.00
2023-05-16T05:30:36.607Z,438.00
2023-05-16T05:31:36.640Z,442.00
2023-05-16T05:32:36.616Z,447.00
2023-05-16T05:33:36.627Z,455.00
2023-05-16T05:34:36.644Z,469.00
2023-05-16T05:35:36.621Z,514.00
2023-05-16T05:36:36.776Z,549.00
2023-05-16T05:37:36.636Z,534.00
2023-05-16T05:38:36.649Z,556.00
2023-05-16T05:39:36.679Z,578.00
2023-05-16T05:40:36.795Z,606.00
2023-05-16T05:41:36.782Z,684.00
2023-05-16T05:42:36.819Z,695.00
2023-05-16T05:43:36.879Z,700.00
2023-05-16T05:44:36.904Z,702.00
2023-05-16T05:45:37.335Z,701.00
2023-05-16T05:46:36.961Z,723.00
2023-05-16T05:47:36.950Z,724.00
2023-05-16T05:48:36.927Z,735.00
2023-05-16T05:49:36.917Z,744.00
2023-05-16T05:50:36.956Z,745.00
2023-05-16T05:51:36.997Z,759.00
2023-05-16T05:52:37.054Z,759.00
2023-05-16T05:53:37.126Z,773.00
2023-05-16T05:54:37.222Z,766.00
2023-05-16T05:55:37.234Z,760.00
2023-05-16T05:56:37.289Z,822.00
2023-05-16T05:57:37.288Z,828.00
2023-05-16T05:58:37.333Z,820.00
2023-05-16T05:59:37.383Z,820.00
2023-05-16T06:00:37.485Z,832.00
2023-05-16T06:01:37.500Z,836.00
2023-05-16T06:02:37.762Z,843.00
2023-05-16T06:03:37.639Z,848.00
2023-05-16T06:04:37.588Z,851.00
2023-05-16T06:05:37.651Z,844.00
2023-05-16T06:06:37.688Z,842.00
2023-05-16T06:07:37.665Z,844.00
2023-05-16T06:08:37.710Z,778.00
2023-05-16T06:09:37.725Z,801.00
2023-05-16T06:10:37.933Z,871.00
2023-05-16T06:11:37.753Z,858.00
2023-05-16T06:12:37.780Z,789.00
2023-05-16T06:13:37.844Z,853.00
2023-05-16T06:14:37.818Z,854.00
2023-05-16T06:15:37.820Z,857.00
2023-05-16T06:16:37.881Z,857.00
2023-05-16T06:17:37.887Z,861.00
2023-05-16T06:18:38.020Z,850.00
2023-05-16T06:19:37.855Z,851.00
2023-05-16T06:20:37.901Z,856.00
2023-05-16T06:21:37.909Z,877.00
2023-05-16T06:22:37.915Z,862.00
2023-05-16T06:23:37.916Z,802.00
2023-05-16T06:24:37.924Z,809.00
2023-05-16T06:25:37.938Z,828.00
2023-05-16T06:26:37.943Z,835.00
2023-05-16T06:27:37.980Z,840.00
2023-05-16T06:28:37.977Z,852.00
2023-05-16T06:29:37.977Z,855.00
2023-05-16T06:30:38.297Z,865.00
2023-05-16T06:31:38.052Z,867.00
2023-05-16T06:32:38.044Z,871.00
2023-05-16T06:33:38.013Z,872.00
2023-05-16T06:34:38.033Z,875.00
2023-05-16T06:35:38.314Z,799.00
2023-05-16T06:36:38.336Z,760.00
2023-05-16T06:37:38.358Z,767.00
2023-05-16T06:38:38.114Z,741.00
2023-05-16T06:39:38.159Z,702.00
2023-05-16T06:40:38.326Z,648.00
2023-05-16T06:41:38.216Z,650.00
2023-05-16T06:42:38.776Z,654.00
2023-05-16T06:43:38.261Z,648.00
2023-05-16T06:44:38.309Z,633.00
2023-05-16T06:45:38.352Z,628.00
2023-05-16T06:46:38.450Z,619.00
2023-05-16T06:47:38.391Z,618.00
2023-05-16T06:48:38.416Z,612.00
2023-05-16T06:49:38.456Z,606.00
2023-05-16T06:50:38.859Z,593.00
2023-05-16T06:51:38.553Z,581.00
2023-05-16T06:52:38.588Z,568.00
2023-05-16T06:53:38.611Z,559.00
2023-05-16T06:54:38.662Z,550.00
2023-05-16T06:55:38.825Z,552.00
2023-05-16T06:56:38.744Z,579.00
2023-05-16T06:57:38.748Z,564.00
2023-05-16T06:58:38.766Z,557.00
2023-05-16T06:59:38.770Z,549.00
2023-05-16T07:00:38.878Z,542.00
2023-05-16T07:01:38.777Z,537.00
2023-05-16T07:02:38.874Z,578.00
2023-05-16T07:03:38.867Z,594.00
2023-05-16T07:04:38.809Z,635.00
2023-05-16T07:05:38.893Z,660.00
2023-05-16T07:06:38.928Z,671.00
2023-05-16T07:07:38.994Z,708.00
2023-05-16T07:08:39.049Z,715.00
2023-05-16T07:09:39.103Z,736.00
2023-05-16T07:10:39.328Z,750.00
2023-05-16T07:11:39.145Z,762.00
2023-05-16T07:12:39.376Z,769.00
2023-05-16T07:13:39.205Z,775.00
2023-05-16T07:14:39.252Z,783.00
2023-05-16T07:15:39.260Z,792.00
2023-05-16T07:16:39.316Z,800.00
2023-05-16T07:17:39.284Z,805.00
2023-05-16T07:18:39.359Z,807.00
2023-05-16T07:19:39.312Z,809.00
2023-05-16T07:20:39.333Z,811.00
2023-05-16T07:21:39.323Z,813.00
2023-05-16T07:22:39.326Z,815.00
2023-05-16T07:23:39.346Z,813.00
2023-05-16T07:24:39.384Z,818.00
2023-05-16T07:25:39.856Z,823.00
2023-05-16T07:26:39.395Z,829.00
2023-05-16T07:27:39.417Z,821.00
2023-05-16T07:28:39.426Z,783.00
2023-05-16T07:29:39.434Z,790.00
2023-05-16T07:30:39.878Z,871.00
2023-05-16T07:31:39.530Z,894.00
2023-05-16T07:32:39.531Z,876.00
2023-05-16T07:33:39.516Z,866.00
2023-05-16T07:34:39.514Z,868.00
2023-05-16T07:35:39.524Z,900.00
2023-05-16T07:36:39.543Z,930.00
2023-05-16T07:37:39.543Z,886.00
2023-05-16T07:38:39.564Z,800.00
2023-05-16T07:39:39.573Z,795.00
2023-05-16T07:40:39.854Z,871.00
2023-05-16T07:41:39.852Z,865.00
2023-05-16T07:42:39.627Z,860.00
2023-05-16T07:43:39.632Z,870.00
2023-05-16T07:44:39.627Z,860.00
2023-05-16T07:45:39.740Z,867.00
2023-05-16T07:46:40.022Z,876.00
2023-05-16T07:47:39.653Z,875.00
2023-05-16T07:48:39.649Z,882.00
2023-05-16T07:49:39.663Z,887.00
2023-05-16T07:50:39.655Z,887.00
2023-05-16T07:51:39.680Z,881.00
2023-05-16T07:52:39.670Z,863.00
2023-05-16T07:53:39.673Z,863.00
2023-05-16T07:54:39.669Z,861.00
2023-05-16T07:55:39.840Z,858.00
2023-05-16T07:56:39.658Z,839.00
2023-05-16T07:57:39.661Z,837.00
2023-05-16T07:58:39.667Z,847.00
2023-05-16T07:59:39.753Z,854.00
2023-05-16T08:00:39.757Z,855.00
2023-05-16T08:01:39.760Z,853.00
2023-05-16T08:02:39.889Z,854.00
2023-05-16T08:03:39.810Z,841.00
2023-05-16T08:04:39.746Z,846.00
2023-05-16T08:05:39.807Z,845.00
2023-05-16T08:06:39.738Z,843.00
2023-05-16T08:07:39.724Z,847.00
2023-05-16T08:08:39.757Z,847.00
2023-05-16T08:09:39.739Z,845.00
2023-05-16T08:10:39.747Z,856.00
2023-05-16T08:11:39.731Z,854.00
2023-05-16T08:12:39.720Z,864.00
2023-05-16T08:13:39.743Z,869.00
2023-05-16T08:14:39.775Z,873.00
2023-05-16T08:15:39.941Z,871.00
2023-05-16T08:16:39.974Z,873.00
2023-05-16T08:17:39.899Z,864.00
2023-05-16T08:18:39.945Z,868.00
2023-05-16T08:19:39.886Z,846.00
2023-05-16T08:20:39.917Z,837.00
2023-05-16T08:21:39.894Z,831.00
2023-05-16T08:22:39.906Z,749.00
2023-05-16T08:23:39.888Z,776.00
2023-05-16T08:24:39.906Z,833.00
2023-05-16T08:25:39.933Z,842.00
2023-05-16T08:26:39.917Z,806.00
2023-05-16T08:27:39.954Z,807.00
2023-05-16T08:28:40.054Z,868.00
2023-05-16T08:29:40.056Z,841.00
2023-05-16T08:30:42.648Z,881.00
2023-05-16T08:31:40.383Z,818.00
2023-05-16T08:32:40.122Z,813.00
2023-05-16T08:33:40.137Z,805.00
2023-05-16T08:34:40.108Z,797.00
2023-05-16T08:35:40.097Z,805.00
2023-05-16T08:36:40.361Z,858.00
2023-05-16T08:37:40.077Z,836.00
2023-05-16T08:38:40.055Z,847.00
2023-05-16T08:39:40.063Z,826.00
2023-05-16T08:40:40.096Z,827.00
2023-05-16T08:41:40.352Z,612.00
2023-05-16T08:42:40.022Z,561.00
2023-05-16T08:43:40.023Z,559.00
2023-05-16T08:44:40.017Z,544.00
2023-05-16T08:45:39.995Z,503.00
2023-05-16T08:46:40.068Z,500.00
2023-05-16T08:47:40.077Z,501.00
2023-05-16T08:48:40.003Z,496.00
2023-05-16T08:49:40.025Z,491.00
2023-05-16T08:50:39.980Z,499.00
2023-05-16T08:51:39.975Z,506.00
2023-05-16T08:52:39.979Z,513.00
2023-05-16T08:53:39.983Z,517.00
2023-05-16T08:54:39.962Z,525.00
2023-05-16T08:55:39.964Z,529.00
2023-05-16T08:56:39.951Z,536.00
2023-05-16T08:57:39.941Z,537.00
2023-05-16T08:58:39.926Z,537.00
2023-05-16T08:59:39.933Z,539.00
2023-05-16T09:00:39.983Z,539.00
2023-05-16T09:01:40.376Z,537.00
2023-05-16T09:02:39.944Z,538.00
2023-05-16T09:03:39.959Z,535.00
2023-05-16T09:04:39.893Z,537.00
2023-05-16T09:05:39.932Z,537.00
2023-05-16T09:06:40.485Z,537.00
2023-05-16T09:07:39.883Z,542.00
2023-05-16T09:08:39.878Z,541.00
2023-05-16T09:09:39.890Z,537.00
2023-05-16T09:10:39.873Z,539.00
2023-05-16T09:11:39.890Z,541.00
2023-05-16T09:12:39.849Z,545.00
2023-05-16T09:13:39.842Z,541.00
2023-05-16T09:14:39.829Z,537.00
2023-05-16T09:15:39.828Z,536.00
2023-05-16T09:16:39.884Z,533.00
2023-05-16T09:17:41.587Z,534.00
2023-05-16T09:18:39.864Z,529.00
2023-05-16T09:19:39.865Z,530.00
2023-05-16T09:20:39.805Z,531.00
2023-05-16T09:21:39.902Z,532.00
2023-05-16T09:22:39.870Z,533.00
2023-05-16T09:23:39.761Z,531.00
2023-05-16T09:24:39.759Z,529.00
2023-05-16T09:25:39.748Z,530.00
2023-05-16T09:26:39.878Z,534.00
2023-05-16T09:27:39.736Z,633.00
2023-05-16T09:28:39.746Z,743.00
2023-05-16T09:29:39.713Z,720.00
2023-05-16T09:30:39.726Z,727.00
2023-05-16T09:31:39.964Z,740.00
2023-05-16T09:32:39.748Z,740.00
2023-05-16T09:33:39.689Z,751.00
2023-05-16T09:34:39.727Z,773.00
2023-05-16T09:35:45.428Z,733.00
2023-05-16T09:36:43.511Z,707.00
2023-05-16T09:37:39.672Z,660.00
2023-05-16T09:38:39.692Z,670.00
2023-05-16T09:39:39.652Z,675.00
2023-05-16T09:40:39.653Z,678.00
2023-05-16T09:41:39.682Z,678.00
2023-05-16T09:42:39.650Z,685.00
2023-05-16T09:43:41.608Z,755.00
2023-05-16T09:44:39.620Z,651.00
2023-05-16T09:45:39.605Z,670.00
2023-05-16T09:46:39.652Z,684.00
2023-05-16T09:47:39.681Z,685.00
2023-05-16T09:48:39.581Z,697.00
2023-05-16T09:49:39.584Z,700.00
2023-05-16T09:50:39.598Z,616.00
2023-05-16T09:51:39.882Z,612.00
2023-05-16T09:52:39.583Z,638.00
2023-05-16T09:53:39.581Z,538.00
2023-05-16T09:54:39.574Z,558.00
2023-05-16T09:55:39.555Z,572.00
2023-05-16T09:56:39.560Z,597.00
2023-05-16T09:57:39.553Z,578.00
2023-05-16T09:58:39.537Z,594.00
2023-05-16T09:59:39.523Z,542.00
2023-05-16T10:00:39.506Z,501.00
2023-05-16T10:01:39.543Z,486.00
2023-05-16T10:02:39.525Z,495.00
2023-05-16T10:03:39.610Z,509.00
2023-05-16T10:04:39.483Z,617.00
2023-05-16T10:05:39.488Z,602.00
2023-05-16T10:06:39.501Z,624.00
2023-05-16T10:07:39.478Z,614.00
2023-05-16T10:08:39.464Z,640.00
2023-05-16T10:09:39.472Z,610.00
2023-05-16T10:10:39.604Z,614.00
2023-05-16T10:11:39.433Z,610.00
2023-05-16T10:12:39.443Z,647.00
2023-05-16T10:13:39.430Z,648.00
2023-05-16T10:14:39.418Z,649.00
2023-05-16T10:15:39.415Z,648.00
2023-05-16T10:16:39.485Z,647.00
2023-05-16T10:17:39.472Z,636.00
2023-05-16T10:18:39.429Z,631.00
2023-05-16T10:19:39.418Z,735.00
2023-05-16T10:20:39.378Z,757.00
2023-05-16T10:21:39.373Z,741.00
2023-05-16T10:22:39.383Z,683.00
2023-05-16T10:23:39.403Z,684.00
2023-05-16T10:24:39.910Z,713.00
2023-05-16T10:25:39.449Z,694.00
2023-05-16T10:26:39.432Z,635.00
2023-05-16T10:27:39.484Z,636.00
2023-05-16T10:28:39.518Z,651.00
2023-05-16T10:29:52.938Z,654.00
2023-05-16T10:30:40.534Z,705.00
2023-05-16T10:31:39.531Z,696.00
2023-05-16T10:32:42.507Z,676.00
2023-05-16T10:33:39.514Z,632.00
2023-05-16T10:34:39.507Z,614.00
2023-05-16T10:35:39.496Z,603.00
2023-05-16T10:36:39.499Z,559.00
2023-05-16T10:37:39.575Z,531.00
2023-05-16T10:38:39.485Z,527.00
2023-05-16T10:39:39.464Z,517.00
2023-05-16T10:40:39.449Z,498.00
2023-05-16T10:41:39.460Z,491.00
2023-05-16T10:42:39.455Z,480.00
2023-05-16T10:43:39.710Z,481.00
2023-05-16T10:44:39.876Z,479.00
2023-05-16T10:45:39.465Z,479.00
2023-05-16T10:46:39.665Z,478.00
2023-05-16T10:47:39.461Z,475.00
2023-05-16T10:48:39.457Z,472.00
2023-05-16T10:49:39.410Z,468.00
2023-05-16T10:50:39.412Z,466.00
2023-05-16T10:51:39.376Z,462.00
2023-05-16T10:52:39.380Z,458.00
2023-05-16T10:53:39.380Z,450.00
2023-05-16T10:54:39.373Z,445.00
2023-05-16T10:55:39.357Z,445.00
2023-05-16T10:56:39.449Z,451.00
2023-05-16T10:57:39.347Z,451.00
2023-05-16T10:58:39.348Z,449.00
2023-05-16T10:59:39.325Z,447.00
2023-05-16T11:00:39.342Z,450.00
2023-05-16T11:01:39.475Z,453.00
2023-05-16T11:02:39.409Z,455.00
2023-05-16T11:03:39.541Z,457.00
2023-05-16T11:04:39.300Z,456.00
2023-05-16T11:05:39.285Z,458.00
2023-05-16T11:06:39.399Z,463.00
2023-05-16T11:07:39.259Z,463.00
2023-05-16T11:08:39.249Z,461.00
2023-05-16T11:09:39.260Z,461.00
2023-05-16T11:10:39.259Z,462.00
2023-05-16T11:11:39.415Z,463.00
2023-05-16T11:12:39.239Z,465.00
2023-05-16T11:13:39.228Z,465.00
2023-05-16T11:14:39.277Z,464.00
2023-05-16T11:15:39.230Z,463.00
2023-05-16T11:16:39.449Z,467.00
2023-05-16T11:17:41.030Z,489.00
2023-05-16T11:18:39.220Z,503.00
2023-05-16T11:19:39.200Z,503.00
2023-05-16T11:20:39.185Z,504.00
2023-05-16T11:21:39.397Z,509.00
2023-05-16T11:22:39.177Z,514.00
2023-05-16T11:23:39.145Z,519.00
2023-05-16T11:24:39.169Z,529.00
2023-05-16T11:25:39.152Z,541.00
2023-05-16T11:26:39.406Z,544.00
2023-05-16T11:27:39.141Z,547.00
2023-05-16T11:28:39.124Z,538.00
2023-05-16T11:29:39.126Z,536.00
2023-05-16T11:30:39.126Z,533.00
2023-05-16T11:31:39.159Z,534.00
2023-05-16T11:32:39.149Z,536.00
2023-05-16T11:33:39.075Z,539.00
2023-05-16T11:34:39.072Z,542.00
2023-05-16T11:35:39.087Z,535.00
2023-05-16T11:36:39.061Z,523.00
2023-05-16T11:37:39.066Z,513.00
2023-05-16T11:38:39.056Z,528.00
2023-05-16T11:39:39.101Z,535.00
2023-05-16T11:40:39.041Z,543.00
2023-05-16T11:41:39.042Z,537.00
2023-05-16T11:42:39.025Z,541.00
2023-05-16T11:43:39.025Z,547.00
2023-05-16T11:44:39.003Z,547.00
2023-05-16T11:45:39.008Z,548.00
2023-05-16T11:46:39.130Z,549.00
2023-05-16T11:47:39.110Z,549.00
2023-05-16T11:48:39.085Z,549.00
2023-05-16T11:49:38.974Z,545.00
2023-05-16T11:50:38.986Z,542.00
2023-05-16T11:51:38.962Z,539.00
2023-05-16T11:52:38.982Z,539.00
2023-05-16T11:53:38.951Z,534.00
2023-05-16T11:54:38.953Z,532.00
2023-05-16T11:55:42.329Z,533.00
2023-05-16T11:56:38.940Z,514.00
2023-05-16T11:57:38.937Z,489.00
2023-05-16T11:58:38.927Z,476.00
2023-05-16T11:59:38.897Z,472.00
2023-05-16T12:00:38.887Z,470.00
2023-05-16T12:01:38.912Z,475.00
2023-05-16T12:02:38.944Z,477.00
2023-05-16T12:03:38.999Z,478.00
2023-05-16T12:04:39.120Z,474.00
2023-05-16T12:05:38.984Z,472.00
2023-05-16T12:06:38.896Z,470.00
2023-05-16T12:07:38.843Z,468.00
2023-05-16T12:08:38.837Z,465.00
2023-05-16T12:09:38.847Z,460.00
2023-05-16T12:10:38.829Z,446.00
2023-05-16T12:11:38.838Z,421.00
2023-05-16T12:12:38.841Z,421.00
2023-05-16T12:13:38.808Z,427.00
2023-05-16T12:14:38.812Z,430.00
2023-05-16T12:15:38.791Z,435.00
2023-05-16T12:16:38.882Z,437.00
2023-05-16T12:17:38.820Z,436.00
2023-05-16T12:18:41.228Z,435.00
2023-05-16T12:19:38.779Z,429.00
2023-05-16T12:20:38.760Z,427.00
2023-05-16T12:21:38.759Z,428.00
2023-05-16T12:22:38.759Z,437.00
2023-05-16T12:23:38.740Z,444.00
2023-05-16T12:24:38.748Z,449.00
2023-05-16T12:25:38.747Z,453.00
2023-05-16T12:26:38.720Z,461.00
2023-05-16T12:27:41.041Z,467.00
2023-05-16T12:28:38.733Z,471.00